Time;durP1;ratioP1;P1;durP2;ratioP2;P2;SDS_P1;SDS_P2;PMS_P1;PMS_P2;Temp;Humidity;BMP_temperature;BMP_pressure;BME280_temperature;BME280_humidity;BME280_pressure;Samples;Min_cycle;Max_cycle;Signal;HPM_P1;HPM_P2
2021/12/25 00:00:18;;;;;;;0.70;0.70;;;18.30;46.60;;;;;;5012864;28;20109;-70
2021/12/25 00:02:46;;;;;;;0.88;0.60;;;18.30;46.60;;;;;;5012925;28;20025;-70
2021/12/25 00:05:13;;;;;;;0.70;0.63;;;18.30;46.70;;;;;;5012644;28;20050;-70
2021/12/25 00:07:38;;;;;;;1.55;0.82;;;18.30;46.60;;;;;;5012914;28;20018;-70
2021/12/25 00:10:05;;;;;;;1.30;0.90;;;18.30;46.60;;;;;;5012851;28;20101;-70
2021/12/25 00:12:32;;;;;;;0.82;0.70;;;18.30;46.60;;;;;;5011370;28;20030;-70
2021/12/25 00:14:58;;;;;;;0.90;0.82;;;18.30;46.60;;;;;;5016715;28;20057;-70
2021/12/25 00:17:26;;;;;;;0.70;0.60;;;18.30;46.60;;;;;;5014499;28;20080;-70
2021/12/25 00:19:54;;;;;;;0.80;0.70;;;18.30;46.60;;;;;;4997343;28;20046;-70
2021/12/25 00:22:21;;;;;;;1.83;1.05;;;18.30;46.60;;;;;;4996987;28;20042;-70
2021/12/25 00:24:46;;;;;;;0.70;0.60;;;18.30;46.60;;;;;;4997206;28;20392;-70
2021/12/25 00:30:09;;;;;;;1.15;0.70;;;18.30;46.50;;;;;;5013985;28;20026;-70
2021/12/25 00:32:53;;;;;;;0.75;0.70;;;18.30;46.60;;;;;;5016594;28;20390;-70
2021/12/25 00:35:19;;;;;;;1.83;0.95;;;18.30;46.50;;;;;;5016518;28;20026;-70
2021/12/25 00:37:45;;;;;;;1.38;0.73;;;18.30;46.60;;;;;;5016407;28;20037;-70
2021/12/25 00:40:11;;;;;;;1.58;0.80;;;18.30;46.60;;;;;;5016442;28;20033;-70
2021/12/25 00:42:37;;;;;;;0.90;0.80;;;18.30;46.50;;;;;;5016300;28;20037;-70
2021/12/25 00:45:03;;;;;;;1.15;0.80;;;18.30;46.50;;;;;;5016441;28;20022;-70
2021/12/25 00:47:29;;;;;;;1.17;0.80;;;18.30;46.50;;;;;;5016404;28;20113;-70
2021/12/25 00:49:54;;;;;;;0.93;0.73;;;18.30;46.50;;;;;;5015129;28;20060;-70
2021/12/25 00:52:20;;;;;;;1.30;0.80;;;18.30;46.50;;;;;;5015425;28;20026;-70
2021/12/25 00:54:46;;;;;;;0.95;0.80;;;18.30;46.50;;;;;;5016217;28;20030;-70
2021/12/25 00:57:11;;;;;;;0.98;0.82;;;18.30;46.40;;;;;;5016224;28;20025;-70
2021/12/25 00:59:37;;;;;;;0.95;0.90;;;18.30;46.40;;;;;;5016270;28;20398;-71
2021/12/25 01:02:02;;;;;;;0.70;0.70;;;18.30;46.40;;;;;;5016085;28;20041;-70
2021/12/25 01:04:28;;;;;;;0.93;0.70;;;18.30;46.40;;;;;;5015822;28;20041;-70
2021/12/25 01:06:53;;;;;;;1.35;0.93;;;18.30;46.40;;;;;;5016073;28;20010;-70
2021/12/25 01:09:20;;;;;;;1.35;1.00;;;18.30;46.30;;;;;;5015922;28;20030;-70
2021/12/25 01:11:49;;;;;;;0.75;0.65;;;18.30;46.40;;;;;;5016047;28;20052;-70
2021/12/25 01:14:39;;;;;;;0.77;0.70;;;18.30;46.40;;;;;;5015849;28;20018;-70
2021/12/25 01:17:23;;;;;;;1.13;0.80;;;18.30;46.30;;;;;;5015922;28;20025;-70
2021/12/25 01:22:54;;;;;;;1.23;1.02;;;18.20;46.30;;;;;;4996312;28;20031;-70
2021/12/25 01:48:52;;;;;;;1.00;0.68;;;18.20;46.30;;;;;;5015208;28;20089;-70
2021/12/25 01:51:18;;;;;;;1.73;0.90;;;18.20;46.20;;;;;;5015203;28;20474;-70
2021/12/25 01:53:44;;;;;;;0.90;0.70;;;18.20;46.20;;;;;;5015072;28;20437;-70
2021/12/25 01:56:10;;;;;;;0.98;0.77;;;18.20;46.10;;;;;;5015212;28;20033;-70
2021/12/25 01:58:36;;;;;;;0.95;0.82;;;18.20;46.10;;;;;;5015118;28;20049;-70
2021/12/25 02:01:05;;;;;;;1.08;0.70;;;18.20;46.10;;;;;;5014877;28;20022;-70
2021/12/25 02:03:31;;;;;;;0.80;0.80;;;18.20;46.10;;;;;;5014925;28;20042;-71
2021/12/25 02:05:58;;;;;;;1.33;0.80;;;18.20;46.10;;;;;;5014848;28;20501;-70
2021/12/25 02:08:24;;;;;;;0.93;0.70;;;18.20;46.00;;;;;;5029993;28;20390;-70
2021/12/25 02:10:50;;;;;;;2.25;0.70;;;18.20;46.00;;;;;;5014780;28;20030;-70
2021/12/25 02:13:17;;;;;;;0.95;0.80;;;18.20;46.00;;;;;;5014711;28;20018;-71
2021/12/25 02:15:46;;;;;;;0.75;0.60;;;18.20;46.00;;;;;;5014679;28;20047;-70
2021/12/25 02:18:18;;;;;;;0.90;0.63;;;18.20;46.00;;;;;;5005747;28;20486;-70
2021/12/25 02:21:10;;;;;;;;;;;18.20;45.90;;;;;;4995473;28;20134;-70
2021/12/25 02:23:36;;;;;;;0.80;0.50;;;18.20;45.90;;;;;;4995119;28;19940;-70
2021/12/25 02:26:03;;;;;;;0.70;0.70;;;18.10;46.10;;;;;;4995097;28;20027;-70
2021/12/25 02:28:30;;;;;;;0.60;0.60;;;18.10;46.10;;;;;;5000250;28;20026;-70
2021/12/25 02:31:00;;;;;;;0.73;0.60;;;18.10;46.00;;;;;;5014453;28;20022;-70
2021/12/25 02:33:27;;;;;;;1.17;0.80;;;18.10;45.90;;;;;;5014283;28;20080;-70
2021/12/25 02:35:52;;;;;;;1.58;0.70;;;18.10;45.90;;;;;;5013814;28;20026;-70
2021/12/25 02:38:18;;;;;;;0.73;0.73;;;18.10;45.90;;;;;;5014178;28;20129;-70
2021/12/25 02:40:44;;;;;;;1.30;0.70;;;18.10;45.90;;;;;;5014302;28;20457;-70
2021/12/25 02:43:09;;;;;;;1.02;0.80;;;18.10;45.80;;;;;;5014192;28;20049;-70
2021/12/25 02:45:35;;;;;;;1.25;0.85;;;18.10;45.80;;;;;;5014253;28;20022;-70
2021/12/25 02:48:07;;;;;;;0.68;0.68;;;18.10;45.80;;;;;;5014091;28;20010;-70
2021/12/25 02:50:34;;;;;;;0.70;0.70;;;18.10;45.80;;;;;;5014243;28;20029;-70
2021/12/25 02:53:02;;;;;;;0.60;0.60;;;18.10;45.80;;;;;;5012845;28;20525;-70
2021/12/25 02:55:28;;;;;;;0.80;0.60;;;18.10;45.80;;;;;;5014088;28;20034;-70
2021/12/25 02:57:55;;;;;;;1.00;0.70;;;18.10;45.70;;;;;;5013859;28;20030;-70
2021/12/25 03:00:24;;;;;;;1.02;0.65;;;18.10;45.70;;;;;;5013897;28;20018;-70
2021/12/25 03:02:50;;;;;;;0.60;0.60;;;18.10;45.60;;;;;;5012724;28;20025;-70
2021/12/25 03:05:16;;;;;;;1.10;0.80;;;18.10;45.70;;;;;;5012516;28;20050;-70
2021/12/25 03:07:42;;;;;;;0.70;0.70;;;18.10;45.60;;;;;;5013795;28;20030;-70
2021/12/25 03:10:09;;;;;;;1.10;1.00;;;18.10;45.60;;;;;;5013880;28;20037;-70
2021/12/25 03:12:52;;;;;;;1.10;0.90;;;18.10;45.60;;;;;;5013597;28;20434;-70
2021/12/25 03:15:27;;;;;;;1.15;0.82;;;18.10;45.60;;;;;;5014102;28;20025;-70
2021/12/25 03:17:55;;;;;;;1.38;0.80;;;18.10;45.60;;;;;;5007386;28;20483;-70
2021/12/25 03:20:21;;;;;;;1.50;0.88;;;18.10;45.60;;;;;;4994047;28;20441;-70
2021/12/25 03:22:47;;;;;;;1.08;0.98;;;18.10;45.60;;;;;;4993861;28;20080;-70
2021/12/25 03:25:15;;;;;;;1.70;0.93;;;18.10;45.50;;;;;;4993923;28;20101;-70
2021/12/25 03:27:43;;;;;;;0.95;0.80;;;18.10;45.50;;;;;;4992441;28;20391;-70
2021/12/25 03:30:14;;;;;;;1.25;0.90;;;18.10;45.50;;;;;;5012589;28;20029;-70
2021/12/25 03:32:40;;;;;;;1.40;1.10;;;18.10;45.40;;;;;;5012259;28;20029;-71
2021/12/25 03:35:06;;;;;;;0.93;0.85;;;18.10;45.40;;;;;;5013484;28;20033;-70
2021/12/25 03:37:31;;;;;;;1.60;1.20;;;18.10;45.40;;;;;;5013153;28;20033;-70
2021/12/25 03:39:57;;;;;;;1.00;0.90;;;18.10;46.30;;;;;;5013378;28;20434;-70
2021/12/25 03:42:23;;;;;;;2.08;1.20;;;18.00;45.30;;;;;;5013355;28;20053;-70
2021/12/25 03:44:48;;;;;;;1.05;0.98;;;18.00;45.30;;;;;;5013596;28;20382;-70
2021/12/25 03:47:25;;;;;;;1.25;1.00;;;18.10;45.30;;;;;;5011698;28;20018;-70
2021/12/25 03:53:09;;;;;;;1.35;0.90;;;18.10;45.30;;;;;;5013160;28;20057;-70
2021/12/25 03:58:19;;;;;;;1.65;0.93;;;18.00;45.20;;;;;;5013115;28;20080;-70
2021/12/25 04:00:47;;;;;;;1.55;1.10;;;18.00;45.20;;;;;;5011895;28;20029;-70
2021/12/25 04:03:21;;;;;;;1.10;0.82;;;18.00;45.20;;;;;;5012922;28;20105;-70
2021/12/25 04:05:48;;;;;;;1.10;1.00;;;18.00;45.20;;;;;;5013104;28;20058;-70
2021/12/25 04:08:16;;;;;;;0.98;0.88;;;18.00;45.20;;;;;;5013155;28;20443;-70
2021/12/25 04:10:43;;;;;;;1.00;0.85;;;18.00;45.10;;;;;;5013086;28;20018;-70
2021/12/25 04:13:14;;;;;;;1.45;0.90;;;18.00;45.10;;;;;;5011933;28;20022;-70
2021/12/25 04:15:42;;;;;;;1.08;0.98;;;18.00;45.10;;;;;;5013161;28;20026;-70
2021/12/25 04:18:09;;;;;;;1.52;1.17;;;18.00;45.10;;;;;;5003521;28;20049;-70
2021/12/25 04:20:35;;;;;;;1.42;1.10;;;18.00;45.00;;;;;;4993151;28;20083;-70
2021/12/25 04:23:05;;;;;;;1.13;0.90;;;18.00;45.00;;;;;;4993305;28;20118;-70
2021/12/25 04:25:33;;;;;;;1.10;0.90;;;18.00;45.00;;;;;;4993175;28;20019;-70
2021/12/25 04:28:35;;;;;;;0.80;0.77;;;18.00;44.90;;;;;;4994404;28;20016;-70
2021/12/25 05:03:53;;;;;;;1.10;0.90;;;17.90;44.80;;;;;;5016326;28;20037;-70
2021/12/25 05:06:22;;;;;;;1.67;1.08;;;17.90;44.70;;;;;;5016118;28;20056;-70
2021/12/25 05:08:49;;;;;;;1.30;0.93;;;17.90;44.70;;;;;;5016193;28;20022;-70
2021/12/25 05:11:14;;;;;;;1.58;1.02;;;17.90;44.70;;;;;;5016096;28;20033;-70
2021/12/25 05:13:40;;;;;;;1.30;1.10;;;17.90;44.70;;;;;;5014809;28;20402;-70
2021/12/25 05:16:06;;;;;;;1.13;0.88;;;17.90;44.60;;;;;;5015844;28;20053;-70
2021/12/25 05:18:31;;;;;;;1.75;1.00;;;17.90;44.60;;;;;;5004584;28;20026;-70
2021/12/25 05:20:57;;;;;;;1.40;1.10;;;17.90;44.60;;;;;;4996263;28;20402;-70
2021/12/25 05:23:22;;;;;;;1.23;1.10;;;17.90;44.50;;;;;;4996386;28;20030;-70
2021/12/25 05:25:49;;;;;;;1.38;0.90;;;17.90;44.50;;;;;;4996220;28;20019;-70
2021/12/25 05:28:23;;;;;;;1.13;0.95;;;17.90;44.40;;;;;;4999498;28;20022;-70
2021/12/25 05:30:49;;;;;;;1.55;1.10;;;17.90;44.40;;;;;;5015610;28;20067;-70
2021/12/25 05:33:15;;;;;;;1.05;0.90;;;17.90;44.40;;;;;;5015843;28;20029;-70
2021/12/25 05:35:40;;;;;;;1.08;1.00;;;17.90;44.30;;;;;;5015652;28;20030;-70
2021/12/25 05:38:13;;;;;;;1.33;1.02;;;17.90;44.30;;;;;;5015484;28;20071;-70
2021/12/25 05:40:38;;;;;;;;;;;17.90;44.30;;;;;;5014817;28;20030;-70
2021/12/25 05:43:03;;;;;;;1.40;1.20;;;17.90;44.10;;;;;;5030756;28;19905;-70
2021/12/25 05:45:29;;;;;;;1.20;0.90;;;17.80;44.40;;;;;;5014201;28;20029;-70
2021/12/25 05:47:55;;;;;;;1.40;1.00;;;17.80;44.40;;;;;;5015473;28;20467;-70
2021/12/25 05:50:20;;;;;;;1.30;0.90;;;17.80;44.30;;;;;;5015267;28;20072;-70
2021/12/25 05:52:46;;;;;;;1.27;1.10;;;17.80;44.20;;;;;;5015369;28;20379;-70
2021/12/25 05:55:11;;;;;;;1.10;1.00;;;17.80;44.10;;;;;;5015272;28;20382;-70
2021/12/25 05:57:37;;;;;;;1.50;1.13;;;17.80;44.10;;;;;;5014030;28;20015;-70
2021/12/25 06:00:05;;;;;;;2.25;1.10;;;17.80;44.10;;;;;;5015247;28;20038;-71
2021/12/25 06:02:31;;;;;;;1.67;1.23;;;17.80;44.00;;;;;;5014999;28;20049;-70
2021/12/25 06:04:56;;;;;;;1.35;0.90;;;17.80;44.00;;;;;;5015047;28;20050;-70
2021/12/25 06:07:22;;;;;;;1.35;1.00;;;17.80;44.00;;;;;;5014978;28;20082;-70
2021/12/25 06:09:47;;;;;;;1.45;1.00;;;17.80;44.00;;;;;;5013771;28;20026;-70
2021/12/25 06:12:14;;;;;;;1.20;1.00;;;17.80;44.00;;;;;;5013891;28;20093;-70
2021/12/25 06:14:41;;;;;;;1.30;1.10;;;17.80;44.00;;;;;;5015033;28;20033;-70
2021/12/25 06:17:07;;;;;;;1.17;0.85;;;17.80;44.00;;;;;;5014696;28;20406;-70
2021/12/25 06:19:32;;;;;;;1.20;0.85;;;17.80;43.90;;;;;;4995406;28;20026;-70
2021/12/25 06:21:58;;;;;;;1.67;1.00;;;17.80;43.90;;;;;;4995104;28;20037;-70
2021/12/25 06:24:25;;;;;;;1.33;0.95;;;17.80;43.80;;;;;;4995027;28;20423;-70
2021/12/25 06:26:51;;;;;;;1.35;0.90;;;17.80;43.80;;;;;;4994951;28;20073;-70
2021/12/25 06:29:19;;;;;;;0.95;0.80;;;17.80;43.80;;;;;;5002119;28;20022;-70
2021/12/25 06:31:45;;;;;;;1.60;0.98;;;17.80;43.70;;;;;;4994789;28;20018;-70
2021/12/25 06:34:11;;;;;;;1.02;0.70;;;17.80;43.70;;;;;;4994973;28;20396;-70
2021/12/25 06:36:36;;;;;;;0.73;0.73;;;17.80;43.70;;;;;;5001452;28;20026;-70
2021/12/25 06:39:04;;;;;;;0.65;0.65;;;17.80;43.60;;;;;;5014362;28;20022;-70
2021/12/25 06:41:29;;;;;;;1.02;0.80;;;17.80;43.60;;;;;;5014189;28;20210;-70
2021/12/25 06:43:55;;;;;;;1.17;0.75;;;17.80;43.60;;;;;;5014313;28;20437;-70
2021/12/25 06:46:20;;;;;;;1.00;0.70;;;17.80;43.60;;;;;;5014176;28;20018;-70
2021/12/25 06:48:46;;;;;;;1.67;0.90;;;17.70;43.50;;;;;;5012863;28;20022;-70
2021/12/25 06:51:12;;;;;;;0.75;0.70;;;17.70;43.40;;;;;;5013939;28;20076;-70
2021/12/25 06:53:37;;;;;;;0.57;0.52;;;17.70;43.40;;;;;;5014287;28;20080;-70
2021/12/25 06:56:03;;;;;;;1.15;0.65;;;17.70;43.30;;;;;;5013956;28;20038;-70
2021/12/25 06:58:29;;;;;;;0.90;0.80;;;17.70;43.30;;;;;;5014220;28;20076;-70
2021/12/25 07:00:54;;;;;;;0.90;0.70;;;17.70;43.30;;;;;;5013838;28;20026;-70
2021/12/25 07:03:20;;;;;;;0.95;0.70;;;17.70;43.30;;;;;;5014107;28;20022;-70
2021/12/25 07:05:45;;;;;;;1.30;0.77;;;17.70;43.20;;;;;;5013809;28;20105;-70
2021/12/25 07:08:11;;;;;;;0.65;0.50;;;17.70;43.20;;;;;;5013634;28;20028;-70
2021/12/25 07:10:37;;;;;;;0.98;0.60;;;17.70;43.20;;;;;;5013824;28;20021;-70
2021/12/25 07:13:02;;;;;;;0.88;0.60;;;17.70;43.20;;;;;;5012414;28;20046;-70
2021/12/25 07:15:28;;;;;;;1.05;0.60;;;17.70;43.10;;;;;;5013705;28;20136;-70
2021/12/25 07:17:53;;;;;;;0.98;0.60;;;17.70;43.10;;;;;;5007153;28;20462;-70
2021/12/25 07:20:19;;;;;;;0.50;0.47;;;17.70;43.00;;;;;;4992699;28;20030;-70
2021/12/25 07:22:45;;;;;;;0.50;0.50;;;17.70;43.00;;;;;;4992476;28;20027;-70
2021/12/25 07:25:11;;;;;;;1.00;0.70;;;17.70;43.00;;;;;;4993916;28;20026;-70
2021/12/25 07:27:36;;;;;;;0.77;0.63;;;17.70;43.00;;;;;;4993627;28;20026;-70
2021/12/25 07:30:05;;;;;;;0.70;0.60;;;17.70;42.90;;;;;;5010262;28;20022;-70
2021/12/25 07:32:31;;;;;;;1.15;0.70;;;17.70;42.90;;;;;;5013290;28;20029;-70
2021/12/25 07:34:56;;;;;;;0.95;0.68;;;17.70;42.90;;;;;;5012157;28;20030;-70
2021/12/25 07:37:22;;;;;;;0.52;0.52;;;17.70;42.90;;;;;;5011793;28;20037;-70
2021/12/25 07:39:47;;;;;;;1.73;0.70;;;17.70;42.80;;;;;;5013205;28;20022;-70
2021/12/25 07:42:13;;;;;;;0.65;0.60;;;17.70;42.80;;;;;;5013133;28;20041;-70
2021/12/25 07:44:39;;;;;;;0.73;0.63;;;17.60;42.80;;;;;;5012006;28;20412;-70
2021/12/25 07:47:09;;;;;;;1.05;0.60;;;17.60;42.70;;;;;;5012980;28;20026;-70
2021/12/25 07:49:35;;;;;;;0.60;0.55;;;17.60;42.70;;;;;;5011919;28;20097;-70
2021/12/25 07:52:01;;;;;;;0.60;0.60;;;17.60;42.70;;;;;;5012981;28;20525;-70
2021/12/25 07:54:26;;;;;;;0.80;0.63;;;17.60;42.70;;;;;;5013105;28;20070;-70
2021/12/25 07:56:52;;;;;;;1.52;0.60;;;17.60;42.60;;;;;;5012847;28;20390;-75
2021/12/25 07:59:17;;;;;;;0.43;0.40;;;17.60;42.60;;;;;;5013147;28;20026;-70
2021/12/25 08:01:43;;;;;;;1.45;0.52;;;17.60;42.50;;;;;;5012643;28;20549;-70
2021/12/25 08:04:10;;;;;;;0.90;0.50;;;17.60;42.50;;;;;;5011485;28;20046;-70
2021/12/25 08:06:35;;;;;;;1.60;0.68;;;17.60;42.50;;;;;;5012895;28;20030;-70
2021/12/25 08:09:04;;;;;;;0.60;0.60;;;17.60;42.50;;;;;;5012929;28;20504;-70
2021/12/25 08:11:30;;;;;;;1.10;0.90;;;17.60;42.40;;;;;;5011629;28;20033;-70
2021/12/25 08:13:56;;;;;;;1.10;0.75;;;17.60;42.40;;;;;;5011576;28;20124;-70
2021/12/25 08:16:22;;;;;;;0.70;0.60;;;17.60;42.30;;;;;;5012759;28;20514;-70
2021/12/25 08:18:47;;;;;;;0.50;0.50;;;17.60;42.40;;;;;;4997954;28;20042;-70
2021/12/25 08:21:13;;;;;;;0.43;0.43;;;17.50;42.20;;;;;;4993112;28;20141;-70
2021/12/25 08:23:39;;;;;;;0.50;0.50;;;17.60;42.20;;;;;;4993155;28;20022;-70
2021/12/25 08:26:05;;;;;;;0.75;0.60;;;17.50;42.20;;;;;;4993019;28;20030;-70
2021/12/25 08:28:31;;;;;;;0.57;0.50;;;17.60;42.10;;;;;;4998528;28;20014;-70
2021/12/25 08:30:57;;;;;;;1.02;0.70;;;17.60;42.20;;;;;;5012629;28;20041;-70
2021/12/25 08:33:23;;;;;;;0.60;0.60;;;17.50;42.10;;;;;;5012657;28;20026;-70
2021/12/25 08:35:48;;;;;;;0.88;0.60;;;17.50;42.00;;;;;;5015911;28;20080;-70
2021/12/25 08:38:14;;;;;;;1.20;0.80;;;17.50;42.00;;;;;;5016300;28;20030;-70
2021/12/25 08:40:41;;;;;;;1.05;0.75;;;17.50;42.90;;;;;;5016599;28;20494;-70
2021/12/25 08:43:07;;;;;;;0.60;0.60;;;17.50;41.90;;;;;;5016455;28;20010;-70
2021/12/25 08:48:03;;;;;;;1.10;0.73;;;17.50;42.00;;;;;;5016655;28;20042;-70
2021/12/25 08:50:29;;;;;;;0.73;0.60;;;17.50;41.90;;;;;;5016386;28;20022;-70
2021/12/25 08:52:55;;;;;;;0.70;0.45;;;17.50;41.80;;;;;;5016245;28;20040;-70
2021/12/25 08:55:20;;;;;;;0.93;0.50;;;17.50;41.80;;;;;;5016553;28;20045;-70
2021/12/25 08:57:46;;;;;;;1.30;0.60;;;17.50;41.80;;;;;;5016113;28;20026;-70
2021/12/25 09:00:12;;;;;;;0.57;0.50;;;17.50;41.80;;;;;;5016120;28;20037;-70
2021/12/25 09:02:38;;;;;;;1.27;0.68;;;17.50;41.70;;;;;;5014732;28;20486;-70
2021/12/25 09:05:04;;;;;;;0.75;0.70;;;17.50;41.70;;;;;;5015651;28;20054;-70
2021/12/25 09:07:30;;;;;;;0.68;0.40;;;17.50;41.70;;;;;;5031216;28;20076;-70
2021/12/25 09:09:55;;;;;;;0.63;0.60;;;17.50;41.70;;;;;;5014678;28;20021;-70
2021/12/25 09:12:23;;;;;;;0.98;0.60;;;17.50;41.70;;;;;;5015981;28;20033;-70
2021/12/25 09:14:48;;;;;;;0.98;0.55;;;17.50;41.70;;;;;;5015998;28;20482;-70
2021/12/25 09:17:14;;;;;;;0.50;0.50;;;17.50;41.60;;;;;;5014856;28;20033;-70
2021/12/25 09:19:40;;;;;;;1.00;0.60;;;17.50;41.60;;;;;;4996128;28;20364;-70
2021/12/25 09:22:09;;;;;;;0.55;0.50;;;17.50;41.60;;;;;;4996066;28;20058;-70
2021/12/25 09:24:35;;;;;;;0.85;0.47;;;17.50;41.60;;;;;;4994798;28;20022;-70
2021/12/25 09:27:01;;;;;;;0.50;0.50;;;17.50;41.50;;;;;;4995998;28;20026;-70
2021/12/25 09:29:27;;;;;;;0.77;0.50;;;17.50;41.50;;;;;;5008924;28;20021;-70
2021/12/25 09:31:53;;;;;;;1.02;0.60;;;17.50;41.40;;;;;;5014350;28;20022;-70
2021/12/25 09:34:18;;;;;;;0.60;0.45;;;17.50;41.40;;;;;;5015550;28;20072;-70
2021/12/25 09:36:44;;;;;;;0.85;0.57;;;17.50;41.40;;;;;;5015261;28;20083;-70
2021/12/25 09:39:09;;;;;;;0.93;0.60;;;17.50;41.40;;;;;;5015272;28;20521;-70
2021/12/25 09:41:35;;;;;;;0.47;0.40;;;17.50;41.40;;;;;;5015266;28;20022;-70
2021/12/25 09:44:02;;;;;;;0.43;0.43;;;17.40;41.30;;;;;;5015233;28;20018;-70
2021/12/25 09:46:28;;;;;;;0.70;0.50;;;17.50;41.30;;;;;;5014035;28;20053;-70
2021/12/25 09:48:54;;;;;;;0.80;0.68;;;17.40;41.20;;;;;;5013981;28;20104;-70
2021/12/25 09:51:21;;;;;;;0.82;0.60;;;17.50;41.30;;;;;;5014067;28;20030;-70
2021/12/25 09:54:06;;;;;;;1.00;0.70;;;17.50;41.30;;;;;;5015095;28;20025;-70
2021/12/25 09:56:34;;;;;;;1.15;0.70;;;17.50;41.20;;;;;;5015217;28;20022;-70
2021/12/25 09:59:00;;;;;;;0.95;0.60;;;17.50;41.20;;;;;;5013756;28;20063;-70
2021/12/25 10:01:45;;;;;;;0.52;0.52;;;17.40;41.20;;;;;;5014890;28;20041;-70
2021/12/25 10:04:30;;;;;;;1.15;0.52;;;17.50;41.00;;;;;;5014855;28;20026;-70
2021/12/25 10:06:56;;;;;;;0.55;0.50;;;17.40;41.10;;;;;;5014937;28;20041;-70
2021/12/25 10:09:24;;;;;;;0.68;0.47;;;17.40;41.20;;;;;;5013512;28;20075;-70
2021/12/25 10:12:10;;;;;;;0.63;0.47;;;17.40;41.10;;;;;;5014856;28;20144;-71
2021/12/25 10:14:39;;;;;;;1.50;0.50;;;17.50;41.00;;;;;;5013536;28;20029;-70
2021/12/25 10:17:26;;;;;;;0.50;0.40;;;17.40;41.10;;;;;;5014595;28;20034;-70
2021/12/25 10:20:01;;;;;;;0.70;0.40;;;17.40;40.90;;;;;;4995108;28;20053;-70
2021/12/25 10:22:26;;;;;;;0.68;0.50;;;17.40;40.90;;;;;;4993768;28;20034;-70
2021/12/25 10:25:06;;;;;;;0.50;0.50;;;17.40;41.00;;;;;;4994977;28;20018;-70
2021/12/25 10:27:31;;;;;;;0.50;0.28;;;17.40;40.80;;;;;;4994890;28;20018;-70
2021/12/25 10:30:03;;;;;;;0.93;0.50;;;17.40;40.90;;;;;;5011846;28;20021;-70
2021/12/25 10:32:29;;;;;;;1.13;0.50;;;17.40;40.90;;;;;;5014419;28;20520;-70
2021/12/25 10:34:54;;;;;;;0.70;0.50;;;17.40;40.80;;;;;;5014295;28;20022;-70
2021/12/25 10:37:22;;;;;;;1.02;0.60;;;17.40;40.80;;;;;;5014113;28;20406;-70
2021/12/25 10:39:49;;;;;;;0.63;0.30;;;17.40;40.80;;;;;;5014087;28;20120;-70
2021/12/25 10:42:20;;;;;;;1.02;0.43;;;17.40;40.70;;;;;;5014133;28;20139;-70
2021/12/25 10:44:51;;;;;;;0.40;0.38;;;17.50;40.70;;;;;;5014111;28;20390;-70
2021/12/25 10:47:28;;;;;;;0.98;0.50;;;17.50;40.60;;;;;;5014173;28;20034;-70
2021/12/25 10:49:57;;;;;;;1.00;0.40;;;17.50;40.60;;;;;;5014036;28;20041;-70
2021/12/25 10:52:27;;;;;;;0.43;0.30;;;17.40;40.60;;;;;;5013967;28;20080;-70
2021/12/25 10:54:56;;;;;;;0.73;0.30;;;17.40;40.50;;;;;;5012745;28;20053;-70
2021/12/25 10:57:40;;;;;;;0.68;0.50;;;17.40;40.60;;;;;;5013606;28;20030;-70
2021/12/25 11:00:24;;;;;;;1.08;0.35;;;17.50;40.40;;;;;;5013739;28;20028;-70
2021/12/25 11:03:10;;;;;;;0.40;0.38;;;17.50;40.50;;;;;;5013726;28;20502;-70
2021/12/25 11:05:47;;;;;;;0.73;0.50;;;17.50;40.40;;;;;;5013691;28;20095;-70
2021/12/25 11:08:26;;;;;;;0.55;0.40;;;17.50;40.50;;;;;;5013668;28;20018;-70
2021/12/25 11:11:04;;;;;;;0.98;0.38;;;17.40;40.50;;;;;;5013619;28;20033;-71
2021/12/25 11:13:57;;;;;;;0.40;0.40;;;17.50;40.50;;;;;;5012522;28;20117;-70
2021/12/25 11:16:28;;;;;;;0.60;0.30;;;17.50;40.30;;;;;;5012499;28;20048;-70
2021/12/25 11:19:15;;;;;;;0.57;0.22;;;17.40;40.40;;;;;;4999109;28;20542;-70
2021/12/25 11:21:44;;;;;;;0.47;0.30;;;17.50;40.40;;;;;;4993739;28;20529;-70
2021/12/25 11:24:12;;;;;;;0.88;0.60;;;17.40;40.40;;;;;;4993887;28;20037;-70
2021/12/25 11:26:39;;;;;;;0.50;0.40;;;17.40;40.30;;;;;;4993853;28;20072;-70
2021/12/25 11:29:08;;;;;;;0.95;0.40;;;17.40;40.30;;;;;;5003785;28;20030;-70
2021/12/25 11:31:34;;;;;;;0.32;0.32;;;17.50;40.30;;;;;;5013269;28;20101;-70
2021/12/25 11:34:00;;;;;;;0.30;0.30;;;17.50;40.30;;;;;;5013326;28;20547;-70
2021/12/25 11:36:25;;;;;;;0.40;0.32;;;17.50;40.30;;;;;;5012991;28;20021;-70
2021/12/25 11:38:51;;;;;;;0.85;0.47;;;17.50;40.20;;;;;;5013078;28;20026;-70
2021/12/25 11:41:18;;;;;;;0.52;0.30;;;17.50;40.20;;;;;;5012962;28;20506;-70
2021/12/25 11:43:46;;;;;;;0.82;0.40;;;17.50;40.20;;;;;;5013140;28;20501;-70
2021/12/25 11:46:14;;;;;;;0.65;0.38;;;17.50;40.10;;;;;;5013034;28;20049;-70
2021/12/25 11:48:41;;;;;;;0.70;0.47;;;17.50;41.00;;;;;;5013060;28;20018;-70
2021/12/25 11:51:23;;;;;;;1.60;0.45;;;17.50;40.00;;;;;;5012988;28;20044;-70
2021/12/25 11:58:55;;;;;;;1.45;0.47;;;17.50;40.00;;;;;;5013003;28;20030;-70
2021/12/25 12:01:31;;;;;;;1.83;0.50;;;17.50;39.90;;;;;;5012698;28;20030;-70
2021/12/25 12:03:58;;;;;;;0.95;0.55;;;17.50;39.90;;;;;;5013012;28;20018;-70
2021/12/25 12:06:45;;;;;;;1.98;0.43;;;17.50;41.00;;;;;;5012586;28;20091;-70
2021/12/25 12:09:21;;;;;;;0.55;0.38;;;17.50;39.80;;;;;;5012142;28;20034;-70
2021/12/25 12:12:11;;;;;;;0.60;0.40;;;17.50;39.90;;;;;;5012830;28;20048;-70
2021/12/25 12:14:37;;;;;;;1.40;0.30;;;17.50;39.90;;;;;;5008779;28;20038;-70
2021/12/25 12:17:25;;;;;;;0.80;0.40;;;17.50;39.90;;;;;;5012795;28;20029;-70
2021/12/25 12:19:53;;;;;;;1.17;0.40;;;17.50;39.80;;;;;;4993312;28;20473;-70
2021/12/25 12:22:31;;;;;;;0.93;0.30;;;17.50;39.90;;;;;;4991722;28;20018;-70
2021/12/25 12:28:05;;;;;;;0.90;0.30;;;17.50;39.70;;;;;;4995195;28;20034;-70
2021/12/25 12:30:31;;;;;;;0.50;0.40;;;17.50;39.90;;;;;;5012559;28;20018;-70
2021/12/25 12:33:01;;;;;;;0.47;0.30;;;17.50;39.90;;;;;;5012695;28;20029;-70
2021/12/25 12:35:35;;;;;;;0.75;0.32;;;17.50;39.90;;;;;;5012676;28;20105;-70
2021/12/25 12:38:47;;;;;;;0.40;0.38;;;17.50;39.80;;;;;;5012335;28;20026;-70
2021/12/25 12:41:22;;;;;;;0.30;0.30;;;17.50;39.70;;;;;;5012414;28;20030;-70
2021/12/25 12:44:05;;;;;;;0.43;0.20;;;17.50;39.90;;;;;;5012727;28;20381;-70
2021/12/25 12:46:51;;;;;;;0.30;0.30;;;17.50;39.80;;;;;;5012566;28;20490;-70
2021/12/25 12:49:21;;;;;;;0.43;0.30;;;17.50;39.80;;;;;;5011292;28;20026;-70
2021/12/25 12:52:13;;;;;;;0.30;0.30;;;17.50;39.90;;;;;;5012393;28;20524;-70
2021/12/25 12:54:40;;;;;;;;;;;17.50;39.70;;;;;;5012939;28;20022;-70
2021/12/25 12:57:06;;;;;;;0.93;0.43;;;17.40;39.70;;;;;;5012404;28;19940;-70
2021/12/25 12:59:50;;;;;;;0.50;0.30;;;17.40;41.00;;;;;;5012499;28;20025;-70
2021/12/25 13:02:17;;;;;;;0.65;0.25;;;17.40;39.90;;;;;;5012321;28;20026;-70
2021/12/25 13:04:52;;;;;;;0.43;0.30;;;17.40;39.90;;;;;;5012086;28;20026;-70
2021/12/25 13:07:20;;;;;;;1.13;0.40;;;17.40;39.90;;;;;;5012216;28;20537;-70
2021/12/25 13:10:29;;;;;;;0.43;0.30;;;17.40;39.90;;;;;;5012406;28;20029;-70
2021/12/25 13:13:13;;;;;;;0.88;0.50;;;17.40;39.70;;;;;;5012461;28;20029;-70
2021/12/25 13:15:41;;;;;;;0.80;0.30;;;17.40;39.70;;;;;;5012499;28;20391;-70
2021/12/25 13:18:07;;;;;;;0.88;0.38;;;17.40;39.80;;;;;;5002843;28;20027;-70
2021/12/25 13:20:45;;;;;;;1.50;0.40;;;17.40;39.80;;;;;;4993970;28;20025;-70
2021/12/25 13:23:35;;;;;;;0.50;0.20;;;17.40;39.70;;;;;;4996173;28;20026;-70
2021/12/25 13:26:09;;;;;;;0.30;0.30;;;17.40;39.60;;;;;;4992785;28;20483;-70
2021/12/25 13:28:38;;;;;;;2.72;0.40;;;17.40;39.80;;;;;;5001754;28;20032;-70
2021/12/25 13:31:07;;;;;;;0.98;0.40;;;17.40;39.80;;;;;;5015516;28;20541;-70
2021/12/25 13:33:35;;;;;;;0.52;0.40;;;17.40;39.70;;;;;;5015444;28;20358;-70
2021/12/25 13:36:05;;;;;;;0.40;0.30;;;17.40;39.70;;;;;;5015370;28;20029;-70
2021/12/25 13:38:47;;;;;;;0.52;0.30;;;17.40;39.70;;;;;;5015137;28;20026;-70
2021/12/25 13:41:25;;;;;;;1.10;0.40;;;17.40;39.50;;;;;;5015403;28;20445;-70
2021/12/25 13:43:50;;;;;;;0.45;0.30;;;17.40;40.60;;;;;;5015340;28;20030;-70
2021/12/25 13:46:16;;;;;;;0.30;0.25;;;17.40;39.60;;;;;;5015328;28;20061;-70
2021/12/25 13:48:42;;;;;;;0.88;0.50;;;17.40;39.60;;;;;;5015198;28;20022;-70
2021/12/25 13:51:07;;;;;;;1.35;0.55;;;17.40;39.60;;;;;;5015180;28;20036;-70
2021/12/25 13:53:33;;;;;;;1.17;0.52;;;17.40;39.50;;;;;;5013872;28;20472;-70
2021/12/25 13:56:09;;;;;;;1.15;0.32;;;17.40;39.50;;;;;;5015198;28;20026;-70
2021/12/25 13:58:35;;;;;;;0.40;0.40;;;17.40;39.40;;;;;;5014961;28;20030;-70
2021/12/25 14:01:00;;;;;;;0.73;0.40;;;17.40;40.50;;;;;;5014957;28;20026;-70
2021/12/25 14:03:28;;;;;;;1.27;0.30;;;17.40;39.50;;;;;;5014959;28;20105;-70
2021/12/25 14:05:54;;;;;;;1.70;0.40;;;17.40;39.40;;;;;;5015120;28;20080;-70
2021/12/25 14:08:25;;;;;;;0.63;0.50;;;17.40;39.40;;;;;;5014741;28;20494;-70
2021/12/25 14:10:59;;;;;;;0.43;0.20;;;17.40;39.40;;;;;;5014986;28;20512;-70
2021/12/25 14:13:25;;;;;;;0.70;0.35;;;17.40;39.40;;;;;;5014737;28;20056;-70
2021/12/25 14:15:54;;;;;;;1.10;0.30;;;17.40;39.50;;;;;;5014794;28;20167;-70